Alex, Louisiana
Current Conditions -  °F | °C
As of 1:53 AM on Saturday 20 Dec 2014 (Local Time) from KAEX Reporting Station
Light Rain Light Rain  
Wind Chill: 44°   Ceiling: 800
Heat Index: 47°   Visibility: 8mi
Dew Point: 45°   Wind: 7mph
Humidity: 93%   Direction: 30°NNE
Pressure: 30.15"   Gusts: NA
Location:  31.2081°N, 92.3683°W
Report Text: KAEX 200753Z 03006KT 8SM -RA OVC008 08/07 A3015 RMK AO2 RAB52 SLP214 P0000 T00830072
Loading
Personal Weather Stations






























Interactive Weather Map New forecast layout! Learn more

10-Day Weather Forecast

Advertisements
Track Severe Weather on mobile